Terminal Aerodrome Forecast
Issued by NWS

Home | Current Version | Previous Version | Text Only | Print | Product List | Glossary On
Versions: 1 2 3 4 5 6 7 8 9 10 11 12 13 14 15 16 17 18 19 20
000
FTUS43 KDMX 172339
TAFOTM
TAF
KOTM 172339Z 1800/1824 31011KT P6SM SKC
     FM180300 VRB05KT P6SM FEW200
     FM181200 16010G17KT P6SM SCT240
     FM181500 17015G23KT P6SM FEW250 WS020/19045KT
     FM182300 17013KT P6SM FEW250=

USA.gov is the U.S. government's official web portal to all federal, state and local government web resources and services.